createdAt,value
2022-12-25T00:02:15.419Z,36.75
2022-12-25T00:04:42.016Z,36.28
2022-12-25T00:07:08.590Z,35.78
2022-12-25T00:09:35.187Z,34.55
2022-12-25T00:12:01.793Z,34.42
2022-12-25T00:14:28.368Z,32.53
2022-12-25T00:16:55.015Z,32.72
2022-12-25T00:19:21.661Z,32.83
2022-12-25T00:21:48.219Z,34.58
2022-12-25T00:24:14.739Z,34.67
2022-12-25T00:26:41.355Z,34.78
2022-12-25T00:29:12.346Z,35.60
2022-12-25T00:31:38.946Z,34.30
2022-12-25T00:34:05.580Z,35.55
2022-12-25T00:36:37.759Z,34.92
2022-12-25T00:39:07.952Z,36.80
2022-12-25T00:41:53.123Z,34.75
2022-12-25T00:46:46.366Z,33.28
2022-12-25T00:49:13.509Z,34.42
2022-12-25T00:51:40.467Z,33.00
2022-12-25T00:54:07.223Z,31.50
2022-12-25T00:56:34.184Z,31.10
2022-12-25T00:59:00.764Z,31.63
2022-12-25T01:01:27.430Z,30.80
2022-12-25T01:03:55.316Z,30.90
2022-12-25T01:06:21.924Z,30.88
2022-12-25T01:09:06.891Z,32.22
2022-12-25T01:11:33.579Z,31.60
2022-12-25T01:14:00.261Z,30.00
2022-12-25T01:16:27.348Z,32.17
2022-12-25T01:18:54.121Z,30.00
2022-12-25T01:21:21.367Z,30.13
2022-12-25T01:23:50.147Z,28.67
2022-12-25T01:26:18.015Z,28.45
2022-12-25T01:28:44.645Z,26.90
2022-12-25T01:31:15.325Z,28.17
2022-12-25T01:33:43.386Z,25.80
2022-12-25T01:36:17.443Z,30.77
2022-12-25T01:38:44.994Z,29.75
2022-12-25T01:41:12.653Z,29.02
2022-12-25T01:44:19.741Z,28.73
2022-12-25T01:46:46.339Z,28.42
2022-12-25T01:49:18.028Z,28.13
2022-12-25T01:51:47.150Z,28.20
2022-12-25T01:54:19.877Z,28.42
2022-12-25T01:56:48.858Z,27.75
2022-12-25T01:59:19.767Z,29.35
2022-12-25T02:01:46.987Z,28.05
2022-12-25T02:04:21.988Z,27.67
2022-12-25T02:06:51.602Z,27.80
2022-12-25T02:09:18.755Z,27.63
2022-12-25T02:11:59.013Z,27.48
2022-12-25T02:14:30.398Z,27.95
2022-12-25T02:17:07.328Z,26.13
2022-12-25T02:19:52.627Z,27.55
2022-12-25T02:22:50.288Z,26.60
2022-12-25T02:25:38.762Z,26.65
2022-12-25T02:28:13.046Z,26.80
2022-12-25T02:30:44.594Z,27.08
2022-12-25T02:33:34.781Z,27.83
2022-12-25T02:36:06.243Z,26.85
2022-12-25T02:38:59.867Z,26.90
2022-12-25T02:41:30.527Z,28.30
2022-12-25T02:44:18.470Z,27.75
2022-12-25T02:47:04.330Z,28.58
2022-12-25T02:49:52.547Z,27.00
2022-12-25T02:52:40.817Z,26.88
2022-12-25T02:55:32.921Z,29.98
2022-12-25T02:58:27.281Z,26.35
2022-12-25T03:01:21.535Z,28.10
2022-12-25T03:04:08.884Z,29.85
2022-12-25T03:06:43.225Z,28.02
2022-12-25T03:09:32.995Z,26.65
2022-12-25T03:12:05.356Z,26.85
2022-12-25T03:14:50.717Z,26.05
2022-12-25T03:17:17.587Z,26.05
2022-12-25T03:20:02.980Z,26.80
2022-12-25T03:22:50.781Z,26.20
2022-12-25T03:25:37.409Z,27.17
2022-12-25T03:28:05.948Z,26.77
2022-12-25T03:31:13.799Z,26.48
2022-12-25T03:34:08.011Z,25.17
2022-12-25T03:37:17.162Z,24.48
2022-12-25T03:40:26.710Z,26.98
2022-12-25T03:43:19.000Z,26.40
2022-12-25T03:46:10.548Z,26.90
2022-12-25T03:49:01.487Z,24.95
2022-12-25T03:51:51.936Z,27.08
2022-12-25T03:54:41.589Z,26.70
2022-12-25T03:57:28.427Z,26.42
2022-12-25T04:00:13.797Z,30.13
2022-12-25T04:02:58.861Z,33.10
2022-12-25T04:08:29.099Z,39.65
2022-12-25T04:13:58.907Z,38.55
2022-12-25T04:16:43.861Z,54.28
2022-12-25T04:19:29.168Z,54.58
2022-12-25T04:22:14.203Z,52.78
2022-12-25T04:27:44.235Z,43.08
2022-12-25T04:30:29.363Z,46.67
2022-12-25T04:33:17.821Z,47.97
2022-12-25T04:36:08.704Z,50.05
2022-12-25T04:38:36.653Z,41.22
2022-12-25T04:41:03.749Z,46.78
2022-12-25T04:43:30.329Z,44.58
2022-12-25T04:45:58.910Z,41.75
2022-12-25T04:48:26.687Z,34.88
2022-12-25T04:50:53.750Z,36.92
2022-12-25T04:53:20.905Z,37.80
2022-12-25T04:55:47.509Z,37.60
2022-12-25T04:58:14.589Z,36.75
2022-12-25T05:00:41.636Z,33.13
2022-12-25T05:03:08.293Z,33.83
2022-12-25T05:05:38.352Z,30.95
2022-12-25T05:08:05.824Z,28.95
2022-12-25T05:10:32.424Z,29.35
2022-12-25T05:12:59.129Z,27.08
2022-12-25T05:15:25.727Z,25.00
2022-12-25T05:17:52.300Z,23.92
2022-12-25T05:20:18.901Z,24.45
2022-12-25T05:22:45.540Z,23.67
2022-12-25T05:25:12.118Z,22.30
2022-12-25T05:27:38.680Z,22.13
2022-12-25T05:30:05.771Z,21.63
2022-12-25T05:32:32.367Z,22.17
2022-12-25T05:35:00.411Z,23.63
2022-12-25T05:37:26.990Z,22.42
2022-12-25T05:39:53.570Z,23.38
2022-12-25T05:42:20.135Z,23.90
2022-12-25T05:44:46.835Z,23.35
2022-12-25T05:47:13.483Z,24.20
2022-12-25T05:49:40.067Z,25.77
2022-12-25T05:52:06.625Z,24.25
2022-12-25T05:54:35.254Z,23.60
2022-12-25T05:57:02.088Z,23.52
2022-12-25T05:59:33.299Z,23.60
2022-12-25T06:02:00.599Z,22.60
2022-12-25T06:04:27.498Z,20.90
2022-12-25T06:06:54.061Z,22.13
2022-12-25T06:09:20.637Z,23.95
2022-12-25T06:11:47.201Z,26.20
2022-12-25T06:14:15.615Z,25.83
2022-12-25T06:16:42.598Z,24.75
2022-12-25T06:19:09.223Z,25.30
2022-12-25T06:21:35.817Z,23.10
2022-12-25T06:24:02.684Z,24.20
2022-12-25T06:26:29.353Z,24.90
2022-12-25T06:28:55.897Z,25.42
2022-12-25T06:31:23.655Z,25.42
2022-12-25T06:33:50.579Z,26.45
2022-12-25T06:36:20.259Z,24.42
2022-12-25T06:38:46.948Z,24.00
2022-12-25T06:41:18.870Z,23.77
2022-12-25T06:43:51.187Z,23.63
2022-12-25T06:46:18.806Z,25.08
2022-12-25T06:48:49.337Z,24.83
2022-12-25T06:51:17.845Z,24.48
2022-12-25T06:53:44.493Z,24.23
2022-12-25T06:56:16.425Z,26.60
2022-12-25T06:58:57.038Z,24.92
2022-12-25T07:01:27.250Z,25.55
2022-12-25T07:03:58.126Z,24.50
2022-12-25T07:06:26.380Z,23.80
2022-12-25T07:08:53.036Z,24.05
2022-12-25T07:11:20.461Z,22.85
2022-12-25T07:13:47.471Z,23.83
2022-12-25T07:16:15.464Z,23.67
2022-12-25T07:18:42.334Z,25.27
2022-12-25T07:21:14.336Z,22.52
2022-12-25T07:23:42.171Z,23.40
2022-12-25T07:26:10.482Z,22.65
2022-12-25T07:28:37.315Z,21.48
2022-12-25T07:31:06.379Z,21.80
2022-12-25T07:33:33.979Z,21.60
2022-12-25T07:36:00.808Z,21.63
2022-12-25T07:38:27.764Z,22.02
2022-12-25T07:40:54.541Z,22.75
2022-12-25T07:43:21.126Z,23.63
2022-12-25T07:45:47.778Z,25.45
2022-12-25T07:48:16.785Z,23.35
2022-12-25T07:50:43.866Z,25.30
2022-12-25T07:53:10.466Z,25.80
2022-12-25T07:55:37.093Z,25.33
2022-12-25T07:58:03.692Z,23.73
2022-12-25T08:00:33.988Z,23.17
2022-12-25T08:03:00.840Z,23.13
2022-12-25T08:05:27.753Z,24.13
2022-12-25T08:07:57.665Z,28.25
2022-12-25T08:10:24.832Z,30.67
2022-12-25T08:12:52.095Z,31.65
2022-12-25T08:15:18.690Z,32.40
2022-12-25T08:17:45.256Z,31.83
2022-12-25T08:20:12.229Z,31.77
2022-12-25T08:22:38.808Z,34.45
2022-12-25T08:25:05.538Z,42.67
2022-12-25T08:27:32.200Z,46.65
2022-12-25T08:29:58.744Z,44.10
2022-12-25T08:32:25.351Z,31.48
2022-12-25T08:34:51.923Z,28.92
2022-12-25T08:37:18.516Z,27.83
2022-12-25T08:39:45.170Z,27.25
2022-12-25T08:42:11.693Z,31.73
2022-12-25T08:44:38.422Z,34.03
2022-12-25T08:47:05.064Z,38.17
2022-12-25T08:49:31.941Z,47.33
2022-12-25T08:51:58.772Z,64.18
2022-12-25T08:54:25.343Z,50.92
2022-12-25T08:56:53.332Z,49.08
2022-12-25T08:59:21.730Z,61.05
2022-12-25T09:01:48.460Z,94.88
2022-12-25T09:04:15.204Z,172.98
2022-12-25T09:06:41.759Z,197.55
2022-12-25T09:09:08.320Z,235.75
2022-12-25T09:11:34.859Z,203.70
2022-12-25T09:14:01.458Z,173.90
2022-12-25T09:16:28.449Z,221.25
2022-12-25T09:18:56.699Z,156.77
2022-12-25T09:21:23.224Z,133.35
2022-12-25T09:23:50.074Z,114.85
2022-12-25T09:26:18.330Z,89.63
2022-12-25T09:28:51.234Z,108.15
2022-12-25T09:31:20.073Z,67.25
2022-12-25T09:33:47.039Z,57.78
2022-12-25T09:36:13.818Z,109.20
2022-12-25T09:38:40.495Z,190.40
2022-12-25T09:41:38.261Z,144.75
2022-12-25T09:44:16.781Z,156.35
2022-12-25T09:46:55.829Z,124.25
2022-12-25T09:49:48.521Z,39.80
2022-12-25T09:52:22.066Z,43.58
2022-12-25T09:54:54.100Z,68.03
2022-12-25T09:57:20.776Z,72.30
2022-12-25T09:59:47.657Z,68.97
2022-12-25T10:02:51.807Z,88.55
2022-12-25T10:05:39.647Z,23.25
2022-12-25T10:08:41.242Z,20.70
2022-12-25T10:11:39.200Z,20.73
2022-12-25T10:14:35.407Z,20.55
2022-12-25T10:17:32.131Z,20.38
2022-12-25T10:20:13.588Z,20.52
2022-12-25T10:22:45.811Z,20.70
2022-12-25T10:25:20.505Z,21.10
2022-12-25T10:27:51.736Z,19.95
2022-12-25T10:30:26.283Z,21.63
2022-12-25T10:32:54.887Z,20.40
2022-12-25T10:35:24.272Z,19.10
2022-12-25T10:37:58.939Z,17.58
2022-12-25T10:40:58.032Z,15.52
2022-12-25T10:43:49.843Z,15.10
2022-12-25T10:46:17.582Z,14.05
2022-12-25T10:48:51.862Z,12.73
2022-12-25T10:51:34.640Z,12.98
2022-12-25T10:54:25.140Z,12.38
2022-12-25T10:56:57.487Z,11.15
2022-12-25T10:59:29.426Z,12.45
2022-12-25T11:02:03.783Z,11.60
2022-12-25T11:04:35.618Z,11.55
2022-12-25T11:07:07.577Z,11.38
2022-12-25T11:09:34.657Z,11.63
2022-12-25T11:12:01.512Z,11.55
2022-12-25T11:14:29.247Z,11.85
2022-12-25T11:16:56.160Z,11.50
2022-12-25T11:19:32.874Z,11.35
2022-12-25T11:22:01.900Z,11.10
2022-12-25T11:24:31.240Z,11.48
2022-12-25T11:27:01.708Z,11.30
2022-12-25T11:29:48.920Z,11.43
2022-12-25T11:32:46.543Z,11.70
2022-12-25T11:35:16.311Z,12.07
2022-12-25T11:37:52.956Z,11.68
2022-12-25T11:40:24.936Z,11.73
2022-12-25T11:42:55.594Z,11.90
2022-12-25T11:45:31.715Z,12.20
2022-12-25T11:48:24.651Z,12.27
2022-12-25T11:50:59.732Z,11.98
2022-12-25T11:53:41.202Z,12.55
2022-12-25T11:56:11.309Z,11.63
2022-12-25T11:58:50.066Z,11.30
2022-12-25T12:01:29.300Z,12.50
2022-12-25T12:03:57.938Z,12.25
2022-12-25T12:06:43.545Z,12.77
2022-12-25T12:09:35.430Z,12.93
2022-12-25T12:12:17.328Z,11.82
2022-12-25T12:15:00.633Z,11.68
2022-12-25T12:17:27.240Z,12.93
2022-12-25T12:19:53.834Z,14.63
2022-12-25T12:22:23.807Z,13.90
2022-12-25T12:25:01.471Z,15.13
2022-12-25T12:27:36.120Z,14.35
2022-12-25T12:30:04.385Z,13.93
2022-12-25T12:32:42.736Z,13.95
2022-12-25T12:35:17.385Z,14.40
2022-12-25T12:37:46.769Z,13.27
2022-12-25T12:40:35.723Z,14.15
2022-12-25T12:43:02.930Z,12.82
2022-12-25T12:45:33.712Z,12.15
2022-12-25T12:48:00.804Z,13.85
2022-12-25T12:50:27.488Z,12.25
2022-12-25T12:52:54.055Z,13.73
2022-12-25T12:55:34.929Z,13.18
2022-12-25T12:58:05.111Z,13.13
2022-12-25T13:00:52.413Z,12.20
2022-12-25T13:04:05.294Z,12.90
2022-12-25T13:07:05.865Z,13.00
2022-12-25T13:09:56.869Z,11.73
2022-12-25T13:12:23.916Z,11.27
2022-12-25T13:14:51.029Z,11.82
2022-12-25T13:17:22.519Z,11.55
2022-12-25T13:19:55.345Z,11.90
2022-12-25T13:22:30.993Z,12.50
2022-12-25T13:25:00.465Z,12.68
2022-12-25T13:27:30.616Z,12.82
2022-12-25T13:29:58.570Z,15.68
2022-12-25T13:32:28.217Z,16.00
2022-12-25T13:34:55.441Z,16.75
2022-12-25T13:37:25.462Z,18.08
2022-12-25T13:39:56.543Z,19.67
2022-12-25T13:42:28.619Z,23.73
2022-12-25T13:45:00.568Z,23.52
2022-12-25T13:47:32.245Z,24.38
2022-12-25T13:50:02.754Z,27.55
2022-12-25T13:52:37.613Z,28.10
2022-12-25T13:55:12.608Z,35.22
2022-12-25T13:57:59.760Z,32.33
2022-12-25T14:00:38.068Z,31.50
2022-12-25T14:03:09.736Z,27.02
2022-12-25T14:05:43.102Z,24.45
2022-12-25T14:08:15.846Z,24.88
2022-12-25T14:10:45.940Z,25.25
2022-12-25T14:13:15.788Z,23.10
2022-12-25T14:15:45.029Z,25.17
2022-12-25T14:18:16.675Z,23.50
2022-12-25T14:21:01.271Z,24.02
2022-12-25T14:25:57.701Z,25.55
2022-12-25T14:28:32.177Z,23.85
2022-12-25T14:31:02.889Z,25.27
2022-12-25T14:33:36.752Z,25.10
2022-12-25T14:36:03.652Z,26.33
2022-12-25T14:38:40.956Z,25.15
2022-12-25T14:41:34.916Z,24.63
2022-12-25T14:44:03.915Z,23.00
2022-12-25T14:46:33.183Z,22.55
2022-12-25T14:49:07.148Z,22.35
2022-12-25T14:51:38.199Z,21.67
2022-12-25T14:54:17.354Z,20.45
2022-12-25T14:56:48.478Z,21.10
2022-12-25T14:59:20.922Z,22.85
2022-12-25T15:01:57.600Z,22.17
2022-12-25T15:04:25.916Z,22.55
2022-12-25T15:07:11.383Z,24.58
2022-12-25T15:09:38.095Z,25.13
2022-12-25T15:12:04.961Z,26.55
2022-12-25T15:14:31.570Z,28.35
2022-12-25T15:17:01.294Z,29.02
2022-12-25T15:19:38.704Z,33.25
2022-12-25T15:22:06.382Z,34.65
2022-12-25T15:24:33.006Z,35.55
2022-12-25T15:27:00.626Z,35.85
2022-12-25T15:30:07.340Z,34.95
2022-12-25T15:32:19.039Z,34.92
2022-12-25T15:34:47.250Z,37.30
2022-12-25T15:37:14.453Z,34.50
2022-12-25T15:39:41.566Z,34.67
2022-12-25T15:42:16.887Z,33.45
2022-12-25T15:44:44.706Z,32.53
2022-12-25T15:47:16.155Z,31.02
2022-12-25T15:49:43.697Z,28.67
2022-12-25T15:52:14.377Z,29.75
2022-12-25T15:54:41.186Z,27.45
2022-12-25T15:57:22.392Z,28.85
2022-12-25T15:59:49.059Z,30.42
2022-12-25T16:02:18.457Z,27.40
2022-12-25T16:04:45.624Z,27.25
2022-12-25T16:07:18.341Z,26.75
2022-12-25T16:09:45.032Z,28.42
2022-12-25T16:12:11.861Z,26.10
2022-12-25T16:14:38.448Z,28.35
2022-12-25T16:17:05.828Z,32.53
2022-12-25T16:19:32.457Z,32.28
2022-12-25T16:21:59.209Z,31.90
2022-12-25T16:24:25.785Z,35.10
2022-12-25T16:26:52.345Z,39.55
2022-12-25T16:29:18.921Z,44.53
2022-12-25T16:31:45.630Z,49.92
2022-12-25T16:34:12.237Z,55.65
2022-12-25T16:36:39.308Z,62.15
2022-12-25T16:39:06.862Z,64.63
2022-12-25T16:41:34.433Z,79.70
2022-12-25T16:44:09.371Z,87.60
2022-12-25T16:46:37.736Z,97.15
2022-12-25T16:49:04.507Z,112.45
2022-12-25T16:51:31.137Z,119.57
2022-12-25T16:53:57.723Z,129.23
2022-12-25T16:56:26.970Z,142.63
2022-12-25T16:58:53.953Z,154.50
2022-12-25T17:01:25.456Z,160.70
2022-12-25T17:03:52.697Z,170.48
2022-12-25T17:06:23.158Z,184.68
2022-12-25T17:08:51.983Z,195.02
2022-12-25T17:11:23.642Z,198.18
2022-12-25T17:13:50.396Z,203.85
2022-12-25T17:16:23.371Z,218.45
2022-12-25T17:19:05.064Z,223.65
2022-12-25T17:21:35.043Z,220.40
2022-12-25T17:24:04.015Z,224.75
2022-12-25T17:26:32.406Z,226.07
2022-12-25T17:28:59.281Z,223.88
2022-12-25T17:31:25.945Z,208.50
2022-12-25T17:33:52.720Z,199.48
2022-12-25T17:36:21.194Z,189.23
2022-12-25T17:38:48.565Z,180.85
2022-12-25T17:41:16.822Z,175.85
2022-12-25T17:43:45.669Z,186.35
2022-12-25T17:46:27.211Z,173.73
2022-12-25T17:48:56.677Z,156.10
2022-12-25T17:51:26.050Z,149.60
2022-12-25T17:53:57.090Z,144.82
2022-12-25T17:56:25.314Z,136.10
2022-12-25T17:58:54.259Z,126.50
2022-12-25T18:01:21.895Z,123.70
2022-12-25T18:03:49.125Z,106.43
2022-12-25T18:06:22.342Z,91.82
2022-12-25T18:08:49.502Z,76.97
2022-12-25T18:11:19.830Z,65.53
2022-12-25T18:13:49.924Z,54.05
2022-12-25T18:16:17.538Z,49.45
2022-12-25T18:18:51.387Z,45.63
2022-12-25T18:21:19.967Z,39.72
2022-12-25T18:23:46.928Z,40.20
2022-12-25T18:26:13.625Z,36.33
2022-12-25T18:28:42.398Z,34.92
2022-12-25T18:31:12.985Z,36.05
2022-12-25T18:33:39.555Z,34.20
2022-12-25T18:36:06.555Z,33.28
2022-12-25T18:38:33.617Z,35.03
2022-12-25T18:41:00.216Z,36.05
2022-12-25T18:43:54.149Z,36.20
2022-12-25T18:46:14.225Z,37.28
2022-12-25T18:48:41.344Z,37.10
2022-12-25T18:51:11.224Z,38.00
2022-12-25T18:53:38.311Z,39.53
2022-12-25T18:56:10.302Z,40.30
2022-12-25T18:58:38.291Z,39.65
2022-12-25T19:01:23.227Z,39.22
2022-12-25T19:06:23.705Z,34.35
2022-12-25T19:08:50.639Z,37.78
2022-12-25T19:11:18.565Z,37.05
2022-12-25T19:13:45.486Z,36.30
2022-12-25T19:16:12.734Z,37.10
2022-12-25T19:18:40.184Z,37.42
2022-12-25T19:21:08.688Z,38.45
2022-12-25T19:23:35.728Z,39.53
2022-12-25T19:26:05.156Z,41.90
2022-12-25T19:28:31.748Z,41.50
2022-12-25T19:31:00.035Z,39.47
2022-12-25T19:33:26.697Z,40.35
2022-12-25T19:35:53.363Z,43.35
2022-12-25T19:38:20.275Z,45.17
2022-12-25T19:41:00.595Z,44.78
2022-12-25T19:43:33.682Z,45.83
2022-12-25T19:46:01.574Z,44.10
2022-12-25T19:48:28.927Z,44.10
2022-12-25T19:50:55.568Z,45.80
2022-12-25T19:53:23.935Z,44.92
2022-12-25T19:55:54.431Z,47.67
2022-12-25T19:58:23.197Z,46.95
2022-12-25T20:01:02.771Z,44.28
2022-12-25T20:03:29.507Z,45.45
2022-12-25T20:05:56.606Z,48.92
2022-12-25T20:08:23.391Z,51.47
2022-12-25T20:10:50.709Z,51.83
2022-12-25T20:13:17.747Z,48.47
2022-12-25T20:15:44.598Z,49.63
2022-12-25T20:18:11.344Z,49.63
2022-12-25T20:20:38.031Z,49.00
2022-12-25T20:23:04.792Z,48.40
2022-12-25T20:25:31.381Z,50.28
2022-12-25T20:27:58.025Z,45.15
2022-12-25T20:30:24.664Z,46.45
2022-12-25T20:32:51.247Z,48.60
2022-12-25T20:35:18.061Z,50.67
2022-12-25T20:37:44.881Z,53.92
2022-12-25T20:40:12.123Z,55.58
2022-12-25T20:42:38.740Z,64.95
2022-12-25T20:45:07.446Z,57.72
2022-12-25T20:47:35.169Z,58.78
2022-12-25T20:50:01.805Z,52.95
2022-12-25T20:52:28.577Z,50.80
2022-12-25T20:54:55.147Z,50.20
2022-12-25T20:57:21.859Z,51.92
2022-12-25T20:59:48.426Z,52.58
2022-12-25T21:02:34.438Z,50.95
2022-12-25T21:05:02.226Z,52.13
2022-12-25T21:07:28.872Z,51.65
2022-12-25T21:09:55.411Z,55.75
2022-12-25T21:12:21.995Z,55.63
2022-12-25T21:14:48.559Z,55.85
2022-12-25T21:17:15.243Z,53.70
2022-12-25T21:19:41.857Z,59.17
2022-12-25T21:22:08.555Z,57.28
2022-12-25T21:24:35.190Z,59.70
2022-12-25T21:27:01.755Z,56.10
2022-12-25T21:29:28.331Z,59.10
2022-12-25T21:32:13.201Z,56.78
2022-12-25T21:34:40.047Z,48.63
2022-12-25T21:37:06.717Z,52.58
2022-12-25T21:39:33.337Z,48.83
2022-12-25T21:41:59.917Z,48.75
2022-12-25T21:44:26.515Z,48.75
2022-12-25T21:46:53.127Z,49.88
2022-12-25T21:49:39.740Z,52.42
2022-12-25T21:52:09.354Z,54.80
2022-12-25T21:54:36.271Z,51.67
2022-12-25T21:57:03.129Z,49.28
2022-12-25T21:59:29.757Z,50.05
2022-12-25T22:01:56.604Z,48.03
2022-12-25T22:04:23.760Z,48.72
2022-12-25T22:07:09.221Z,46.88
2022-12-25T22:09:36.222Z,45.85
2022-12-25T22:12:22.055Z,49.45
2022-12-25T22:14:56.725Z,47.13
2022-12-25T22:17:50.615Z,43.50
2022-12-25T22:20:27.911Z,40.08
2022-12-25T22:22:54.861Z,41.75
2022-12-25T22:25:22.349Z,38.17
2022-12-25T22:27:49.731Z,40.83
2022-12-25T22:30:19.487Z,40.28
2022-12-25T22:32:46.508Z,38.40
2022-12-25T22:35:14.077Z,38.38
2022-12-25T22:37:42.292Z,37.72
2022-12-25T22:40:11.366Z,36.97
2022-12-25T22:42:37.933Z,38.30
2022-12-25T22:45:05.207Z,38.88
2022-12-25T22:47:31.783Z,37.42
2022-12-25T22:49:58.380Z,36.80
2022-12-25T22:52:25.355Z,34.40
2022-12-25T22:54:51.905Z,36.50
2022-12-25T22:57:18.566Z,35.63
2022-12-25T22:59:45.174Z,38.00
2022-12-25T23:02:11.809Z,36.58
2022-12-25T23:04:38.493Z,37.08
2022-12-25T23:07:05.327Z,36.10
2022-12-25T23:09:31.942Z,38.03
2022-12-25T23:11:59.179Z,37.42
2022-12-25T23:14:39.172Z,38.60
2022-12-25T23:17:31.674Z,37.60
2022-12-25T23:20:18.159Z,37.92
2022-12-25T23:23:04.188Z,38.05
2022-12-25T23:25:49.645Z,36.60
2022-12-25T23:28:36.306Z,36.05
2022-12-25T23:31:03.043Z,36.35
2022-12-25T23:33:29.839Z,36.28
2022-12-25T23:35:56.509Z,37.47
2022-12-25T23:38:23.069Z,36.08
2022-12-25T23:40:49.643Z,34.60
2022-12-25T23:43:16.238Z,35.85
2022-12-25T23:45:42.825Z,34.90
2022-12-25T23:48:09.386Z,38.42
2022-12-25T23:50:35.962Z,36.13
2022-12-25T23:53:02.517Z,35.33
2022-12-25T23:55:29.048Z,35.30
2022-12-25T23:57:55.616Z,33.40
